Time;durP1;ratioP1;P1;durP2;ratioP2;P2;SDS_P1;SDS_P2;PMS_P1;PMS_P2;Temp;Humidity;BMP_temperature;BMP_pressure;BME280_temperature;BME280_humidity;BME280_pressure;Samples;Min_cycle;Max_cycle;Signal;HPM_P1;HPM_P2
2022/12/01 00:01:07;;;;;;;25.52;15.88;;;;;;;;;;5076021;28;20048;-89
2022/12/01 00:03:35;;;;;;;23.48;15.35;;;;;;;;;;5075713;28;20058;-89
2022/12/01 00:06:05;;;;;;;23.17;14.57;;;;;;;;;;5076456;28;20067;-90
2022/12/01 00:08:33;;;;;;;21.38;14.43;;;;;;;;;;5077283;28;20047;-89
2022/12/01 00:11:08;;;;;;;24.27;14.43;;;;;;;;;;5076076;28;20054;-90
2022/12/01 00:13:36;;;;;;;26.50;16.23;;;;;;;;;;5076561;28;20088;-90
2022/12/01 00:16:10;;;;;;;25.08;15.52;;;;;;;;;;5076082;28;20044;-90
2022/12/01 00:18:37;;;;;;;24.60;14.90;;;;;;;;;;5076167;28;20055;-89
2022/12/01 00:21:05;;;;;;;23.63;14.80;;;;;;;;;;5076216;28;20047;-89
2022/12/01 00:23:32;;;;;;;23.50;15.05;;;;;;;;;;5075523;28;20060;-90
2022/12/01 00:26:03;;;;;;;24.02;14.57;;;;;;;;;;5075961;28;20056;-90
2022/12/01 00:28:31;;;;;;;23.60;14.95;;;;;;;;;;5075845;28;20044;-89
2022/12/01 00:30:59;;;;;;;24.95;15.02;;;;;;;;;;5076282;28;20059;-90
2022/12/01 00:33:26;;;;;;;23.02;14.68;;;;;;;;;;5094121;28;20044;-89
2022/12/01 00:36:01;;;;;;;24.85;15.13;;;;;;;;;;5097132;28;20044;-89
2022/12/01 00:38:28;;;;;;;23.52;14.73;;;;;;;;;;5076343;28;20411;-90
2022/12/01 00:40:55;;;;;;;24.23;14.80;;;;;;;;;;5075633;28;20044;-90
2022/12/01 00:43:23;;;;;;;26.08;15.05;;;;;;;;;;5075926;28;20135;-90
2022/12/01 00:45:51;;;;;;;25.48;14.75;;;;;;;;;;5093584;28;20531;-89
2022/12/01 00:48:18;;;;;;;22.15;14.57;;;;;;;;;;5093023;28;20059;-89
2022/12/01 00:50:45;;;;;;;22.75;14.60;;;;;;;;;;5093353;28;20054;-89
2022/12/01 00:53:12;;;;;;;24.15;14.85;;;;;;;;;;5075079;28;20078;-90
2022/12/01 00:55:40;;;;;;;22.05;14.77;;;;;;;;;;5075755;28;20044;-89
2022/12/01 00:58:07;;;;;;;23.40;15.38;;;;;;;;;;5075786;28;20056;-89
2022/12/01 01:00:37;;;;;;;25.45;15.63;;;;;;;;;;5075614;28;20496;-90
2022/12/01 01:03:06;;;;;;;26.23;15.93;;;;;;;;;;5075524;28;20083;-89
2022/12/01 01:05:37;;;;;;;24.80;15.23;;;;;;;;;;5077122;28;20048;-89
2022/12/01 01:08:08;;;;;;;24.55;15.45;;;;;;;;;;5075790;28;20056;-89
2022/12/01 01:10:43;;;;;;;26.08;15.38;;;;;;;;;;5074412;28;20052;-89
2022/12/01 01:13:11;;;;;;;31.13;16.65;;;;;;;;;;5093471;28;20049;-89
2022/12/01 01:15:38;;;;;;;25.25;15.82;;;;;;;;;;5078612;28;20452;-89
2022/12/01 01:18:08;;;;;;;26.60;16.17;;;;;;;;;;5096672;28;20056;-89
2022/12/01 01:20:35;;;;;;;26.23;15.70;;;;;;;;;;5079327;28;20127;-90
2022/12/01 01:23:02;;;;;;;24.98;15.77;;;;;;;;;;5079083;28;20403;-90
2022/12/01 01:25:31;;;;;;;24.38;15.57;;;;;;;;;;5079071;28;20055;-89
2022/12/01 01:27:59;;;;;;;25.30;16.13;;;;;;;;;;5096704;28;20438;-90
2022/12/01 01:30:26;;;;;;;26.25;15.90;;;;;;;;;;5079069;28;20062;-89
2022/12/01 01:32:53;;;;;;;23.13;15.23;;;;;;;;;;5079076;28;20139;-89
2022/12/01 01:35:21;;;;;;;26.15;15.88;;;;;;;;;;5078882;28;20424;-89
2022/12/01 01:37:49;;;;;;;25.25;15.32;;;;;;;;;;5079264;28;20135;-89
2022/12/01 01:40:17;;;;;;;26.45;15.32;;;;;;;;;;5078808;28;20496;-89
2022/12/01 01:42:44;;;;;;;24.08;15.25;;;;;;;;;;5079040;28;20481;-89
2022/12/01 01:45:21;;;;;;;24.95;15.55;;;;;;;;;;5078565;28;20052;-89
2022/12/01 01:47:49;;;;;;;25.20;15.23;;;;;;;;;;5079519;28;20058;-90
2022/12/01 01:50:18;;;;;;;25.88;15.75;;;;;;;;;;5082052;28;20048;-89
2022/12/01 01:52:47;;;;;;;26.23;15.23;;;;;;;;;;5079117;28;20078;-89
2022/12/01 01:55:15;;;;;;;28.70;15.63;;;;;;;;;;5078533;28;20055;-89
2022/12/01 01:57:43;;;;;;;23.60;14.20;;;;;;;;;;5078769;28;20048;-90
2022/12/01 02:00:14;;;;;;;31.95;15.85;;;;;;;;;;5078804;28;20048;-89
2022/12/01 02:02:43;;;;;;;23.48;14.73;;;;;;;;;;5078312;28;20052;-89
2022/12/01 02:05:21;;;;;;;23.05;15.38;;;;;;;;;;5078541;28;20044;-89
2022/12/01 02:07:50;;;;;;;28.38;16.58;;;;;;;;;;5078237;28;20058;-89
2022/12/01 02:10:21;;;;;;;24.80;14.25;;;;;;;;;;5078442;28;20052;-89
2022/12/01 02:12:54;;;;;;;22.35;14.32;;;;;;;;;;5078749;28;20074;-89
2022/12/01 02:15:22;;;;;;;24.73;14.57;;;;;;;;;;5078666;28;20059;-89
2022/12/01 02:18:05;;;;;;;23.10;15.45;;;;;;;;;;5078494;28;20055;-89
2022/12/01 02:20:36;;;;;;;25.90;15.68;;;;;;;;;;5078525;28;20503;-89
2022/12/01 02:23:21;;;;;;;22.77;14.52;;;;;;;;;;5081516;28;20052;-89
2022/12/01 02:26:18;;;;;;;22.13;14.90;;;;;;;;;;5096233;28;20115;-89
2022/12/01 02:28:55;;;;;;;22.70;14.13;;;;;;;;;;5068238;28;20056;-89
2022/12/01 02:31:32;;;;;;;23.08;14.32;;;;;;;;;;5078031;28;20044;-89
2022/12/01 02:34:35;;;;;;;23.55;14.13;;;;;;;;;;5078132;28;20060;-89
2022/12/01 02:37:02;;;;;;;25.35;14.35;;;;;;;;;;4997521;28;20057;-90
2022/12/01 02:39:35;;;;;;;23.23;14.52;;;;;;;;;;5062601;28;20044;-89
2022/12/01 02:45:19;;;;;;;21.67;14.05;;;;;;;;;;5095237;28;20048;-88
2022/12/01 02:47:48;;;;;;;20.42;12.90;;;;;;;;;;5053978;28;20049;-89
2022/12/01 02:50:16;;;;;;;21.58;14.38;;;;;;;;;;5054128;28;20057;-89
2022/12/01 02:52:44;;;;;;;25.40;14.35;;;;;;;;;;5054144;28;20053;-90
2022/12/01 02:55:12;;;;;;;22.95;15.15;;;;;;;;;;5054165;28;20481;-90
2022/12/01 02:57:39;;;;;;;22.80;14.30;;;;;;;;;;5053787;28;20059;-89
2022/12/01 03:00:12;;;;;;;22.77;14.10;;;;;;;;;;5053955;28;20049;-89
2022/12/01 03:02:48;;;;;;;23.88;14.90;;;;;;;;;;5055307;28;20069;-90
2022/12/01 03:05:31;;;;;;;21.52;14.10;;;;;;;;;;5056059;28;20455;-89
2022/12/01 03:08:04;;;;;;;23.13;14.95;;;;;;;;;;5053625;28;20053;-90
2022/12/01 03:10:46;;;;;;;21.95;14.27;;;;;;;;;;5053363;28;20049;-89
2022/12/01 03:13:32;;;;;;;20.60;13.77;;;;;;;;;;5053787;28;20507;-89
2022/12/01 03:16:07;;;;;;;22.33;15.02;;;;;;;;;;5053293;28;20063;-90
2022/12/01 03:18:40;;;;;;;22.23;14.23;;;;;;;;;;5053273;28;20045;-89
2022/12/01 03:21:14;;;;;;;24.03;14.47;;;;;;;;;;5053472;28;20338;-89
2022/12/01 03:23:48;;;;;;;24.48;15.50;;;;;;;;;;5053422;28;20052;-89
2022/12/01 03:26:15;;;;;;;;;;;;;;;;;;5053814;28;20482;-89
2022/12/01 03:28:45;;;;;;;24.98;14.52;;;;;;;;;;5053228;28;19958;-90
2022/12/01 03:31:16;;;;;;;23.20;14.35;;;;;;;;;;5053356;28;20565;-89
2022/12/01 03:33:47;;;;;;;26.48;14.98;;;;;;;;;;5054522;28;20059;-89
2022/12/01 03:36:18;;;;;;;22.80;14.38;;;;;;;;;;5053134;28;20045;-89
2022/12/01 03:38:48;;;;;;;25.23;15.65;;;;;;;;;;5053051;28;20428;-90
2022/12/01 03:41:17;;;;;;;22.65;14.18;;;;;;;;;;5053237;28;20053;-90
2022/12/01 03:43:49;;;;;;;27.77;15.40;;;;;;;;;;5052843;28;20052;-89
2022/12/01 03:46:39;;;;;;;34.72;16.35;;;;;;;;;;5060301;28;20048;-89
2022/12/01 03:49:08;;;;;;;24.83;15.82;;;;;;;;;;5072547;28;20049;-90
2022/12/01 03:51:42;;;;;;;26.73;16.27;;;;;;;;;;5072965;28;20062;-89
2022/12/01 03:54:44;;;;;;;26.85;15.48;;;;;;;;;;5072663;28;20063;-89
2022/12/01 03:57:15;;;;;;;26.15;16.42;;;;;;;;;;5021003;28;20047;-89
2022/12/01 03:59:43;;;;;;;26.90;16.55;;;;;;;;;;5073028;28;20048;-89
2022/12/01 04:02:11;;;;;;;30.00;16.83;;;;;;;;;;5073792;28;20135;-89
2022/12/01 04:04:39;;;;;;;27.80;17.05;;;;;;;;;;5072749;28;20052;-89
2022/12/01 04:07:06;;;;;;;28.20;17.33;;;;;;;;;;5072736;28;20493;-90
2022/12/01 04:09:33;;;;;;;26.35;15.65;;;;;;;;;;5072151;28;20067;-89
2022/12/01 04:14:46;;;;;;;28.02;16.05;;;;;;;;;;5074290;28;20052;-89
2022/12/01 04:17:14;;;;;;;29.08;15.73;;;;;;;;;;5076235;28;20480;-90
2022/12/01 04:19:41;;;;;;;26.77;16.38;;;;;;;;;;5075958;28;20053;-90
2022/12/01 04:22:09;;;;;;;27.38;16.48;;;;;;;;;;5072337;28;20048;-89
2022/12/01 04:24:36;;;;;;;29.40;16.42;;;;;;;;;;5072488;28;20381;-90
2022/12/01 04:27:03;;;;;;;26.08;15.68;;;;;;;;;;5072355;28;20051;-90
2022/12/01 04:29:31;;;;;;;24.42;15.70;;;;;;;;;;5072178;28;20143;-90
2022/12/01 04:31:59;;;;;;;27.67;16.48;;;;;;;;;;5072340;28;20058;-89
2022/12/01 04:34:26;;;;;;;27.27;16.08;;;;;;;;;;5072346;28;20515;-89
2022/12/01 04:36:54;;;;;;;28.67;16.88;;;;;;;;;;5072560;28;20056;-89
2022/12/01 04:39:21;;;;;;;27.13;16.38;;;;;;;;;;5072458;28;20053;-90
2022/12/01 04:41:48;;;;;;;30.00;16.27;;;;;;;;;;5072104;28;20056;-89
2022/12/01 04:44:16;;;;;;;30.58;17.05;;;;;;;;;;5071957;28;20063;-89
2022/12/01 04:46:43;;;;;;;30.50;17.13;;;;;;;;;;5071871;28;20103;-89
2022/12/01 04:49:11;;;;;;;29.10;16.63;;;;;;;;;;5072904;28;20139;-89
2022/12/01 04:51:38;;;;;;;31.42;17.23;;;;;;;;;;5076298;28;20059;-89
2022/12/01 04:54:05;;;;;;;25.52;16.33;;;;;;;;;;5075895;28;20054;-89
2022/12/01 04:56:33;;;;;;;28.25;14.95;;;;;;;;;;5076305;28;20140;-89
2022/12/01 04:59:00;;;;;;;30.00;17.38;;;;;;;;;;5076071;28;20055;-89
2022/12/01 05:01:28;;;;;;;27.10;15.93;;;;;;;;;;5076054;28;20089;-89
2022/12/01 05:03:55;;;;;;;29.42;16.65;;;;;;;;;;5076143;28;20067;-89
2022/12/01 05:06:24;;;;;;;27.13;15.75;;;;;;;;;;5075947;28;20049;-89
2022/12/01 05:08:54;;;;;;;29.00;16.48;;;;;;;;;;5075878;28;20053;-89
2022/12/01 05:11:22;;;;;;;24.10;15.13;;;;;;;;;;5075784;28;20060;-89
2022/12/01 05:13:49;;;;;;;25.15;15.90;;;;;;;;;;5075675;28;20055;-89
2022/12/01 05:16:27;;;;;;;29.35;16.80;;;;;;;;;;5075980;28;20412;-90
2022/12/01 05:21:44;;;;;;;29.35;15.73;;;;;;;;;;5077167;28;20151;-89
2022/12/01 05:24:12;;;;;;;32.40;15.93;;;;;;;;;;5076729;28;20059;-89
2022/12/01 05:26:40;;;;;;;29.75;16.83;;;;;;;;;;5082150;28;20139;-89
2022/12/01 05:29:07;;;;;;;33.90;18.30;;;;;;;;;;5087433;28;20080;-89
2022/12/01 05:31:35;;;;;;;30.60;18.25;;;;;;;;;;5087843;28;20044;-90
2022/12/01 05:34:02;;;;;;;31.30;18.58;;;;;;;;;;5076212;28;20056;-88
2022/12/01 05:36:30;;;;;;;33.25;19.40;;;;;;;;;;5075536;28;20044;-89
2022/12/01 05:38:57;;;;;;;33.85;19.27;;;;;;;;;;5075702;28;20054;-89
2022/12/01 05:41:24;;;;;;;35.35;20.52;;;;;;;;;;5075932;28;20052;-89
2022/12/01 05:43:51;;;;;;;36.33;19.77;;;;;;;;;;5075218;28;20044;-89
2022/12/01 05:46:19;;;;;;;30.27;18.75;;;;;;;;;;5075683;28;20054;-90
2022/12/01 05:48:46;;;;;;;31.02;18.75;;;;;;;;;;5075063;28;20060;-89
2022/12/01 05:51:15;;;;;;;34.85;20.20;;;;;;;;;;5075345;28;20506;-89
2022/12/01 05:53:42;;;;;;;34.78;20.02;;;;;;;;;;5075171;28;20143;-90
2022/12/01 05:56:10;;;;;;;36.22;20.80;;;;;;;;;;5075232;28;20048;-90
2022/12/01 05:58:37;;;;;;;36.67;21.33;;;;;;;;;;5075235;28;20062;-90
2022/12/01 06:01:05;;;;;;;39.53;21.85;;;;;;;;;;5074688;28;20055;-89
2022/12/01 06:03:32;;;;;;;43.25;22.45;;;;;;;;;;5097585;28;20558;-89
2022/12/01 06:06:00;;;;;;;44.35;23.85;;;;;;;;;;5115485;28;20487;-90
2022/12/01 06:08:27;;;;;;;40.35;23.48;;;;;;;;;;5115466;28;20047;-90
2022/12/01 06:10:54;;;;;;;46.63;24.75;;;;;;;;;;5115801;28;20047;-89
2022/12/01 06:13:22;;;;;;;49.22;25.98;;;;;;;;;;5115619;28;20050;-90
2022/12/01 06:15:59;;;;;;;39.72;23.13;;;;;;;;;;5115637;28;20051;-89
2022/12/01 06:18:27;;;;;;;55.72;26.35;;;;;;;;;;5115238;28;20051;-89
2022/12/01 06:20:54;;;;;;;42.30;24.17;;;;;;;;;;5115326;28;20131;-90
2022/12/01 06:23:22;;;;;;;41.83;24.02;;;;;;;;;;5115320;28;20157;-89
2022/12/01 06:25:56;;;;;;;43.17;24.77;;;;;;;;;;5115042;28;20580;-89
2022/12/01 06:28:23;;;;;;;42.47;24.92;;;;;;;;;;5114994;28;20047;-89
2022/12/01 06:30:50;;;;;;;46.50;26.15;;;;;;;;;;5115386;28;20050;-90
2022/12/01 06:33:21;;;;;;;45.85;25.80;;;;;;;;;;5115286;28;20043;-89
2022/12/01 06:35:48;;;;;;;47.25;26.20;;;;;;;;;;5115012;28;20052;-89
2022/12/01 06:38:16;;;;;;;48.00;25.27;;;;;;;;;;5114727;28;20043;-89
2022/12/01 06:40:44;;;;;;;65.45;37.95;;;;;;;;;;5115229;28;20403;-89
2022/12/01 06:43:13;;;;;;;46.63;27.48;;;;;;;;;;5114844;28;20048;-90
2022/12/01 06:45:40;;;;;;;48.80;25.00;;;;;;;;;;5120306;27;20138;-90
2022/12/01 06:48:08;;;;;;;47.85;26.73;;;;;;;;;;5120017;27;20510;-89
2022/12/01 06:50:35;;;;;;;43.75;24.88;;;;;;;;;;5118250;27;20051;-90
2022/12/01 06:53:05;;;;;;;52.13;26.92;;;;;;;;;;5136719;27;20054;-89
2022/12/01 06:55:32;;;;;;;52.50;28.58;;;;;;;;;;5118355;27;20133;-89
2022/12/01 06:58:00;;;;;;;57.78;29.67;;;;;;;;;;5118298;27;20497;-89
2022/12/01 07:00:27;;;;;;;53.03;28.70;;;;;;;;;;5112701;27;20047;-89
2022/12/01 07:02:55;;;;;;;57.90;30.55;;;;;;;;;;5095328;28;20481;-90
2022/12/01 07:05:22;;;;;;;55.33;29.00;;;;;;;;;;5095014;28;20048;-86
2022/12/01 07:07:49;;;;;;;57.22;30.58;;;;;;;;;;5077412;28;20495;-89
2022/12/01 07:10:26;;;;;;;55.17;29.75;;;;;;;;;;5093024;28;20495;-90
2022/12/01 07:12:57;;;;;;;54.97;29.77;;;;;;;;;;5077671;28;20055;-90
2022/12/01 07:15:27;;;;;;;58.60;29.92;;;;;;;;;;5096652;28;20086;-89
2022/12/01 07:17:54;;;;;;;61.30;30.42;;;;;;;;;;5078956;28;20079;-89
2022/12/01 07:20:21;;;;;;;56.97;30.80;;;;;;;;;;5079187;28;20052;-89
2022/12/01 07:22:48;;;;;;;59.08;30.23;;;;;;;;;;5094896;28;20055;-90
2022/12/01 07:25:16;;;;;;;58.17;28.50;;;;;;;;;;5096249;28;20052;-88
2022/12/01 07:27:43;;;;;;;59.67;30.48;;;;;;;;;;5094925;28;20058;-90
2022/12/01 07:30:10;;;;;;;62.03;30.33;;;;;;;;;;5076535;28;20052;-90
2022/12/01 07:32:37;;;;;;;57.97;30.23;;;;;;;;;;5077095;28;20055;-90
2022/12/01 07:35:05;;;;;;;54.35;29.65;;;;;;;;;;5077066;28;20055;-90
2022/12/01 07:37:32;;;;;;;56.22;29.70;;;;;;;;;;5076825;28;20051;-89
2022/12/01 07:40:00;;;;;;;57.95;27.55;;;;;;;;;;5076986;28;20063;-89
2022/12/01 07:42:27;;;;;;;61.85;29.75;;;;;;;;;;5077061;28;20147;-89
2022/12/01 07:44:54;;;;;;;65.63;30.38;;;;;;;;;;5077640;28;20056;-89
2022/12/01 07:47:22;;;;;;;63.83;30.35;;;;;;;;;;5077044;28;20131;-89
2022/12/01 07:49:49;;;;;;;70.57;31.77;;;;;;;;;;5077429;28;20052;-89
2022/12/01 07:52:17;;;;;;;64.97;32.70;;;;;;;;;;5095542;28;20052;-88
2022/12/01 07:54:45;;;;;;;72.80;34.67;;;;;;;;;;5077975;28;20052;-90
2022/12/01 07:57:13;;;;;;;68.55;35.95;;;;;;;;;;5080873;28;20044;-89
2022/12/01 07:59:40;;;;;;;110.22;61.42;;;;;;;;;;5085559;28;20075;-89
2022/12/01 08:02:08;;;;;;;73.78;38.63;;;;;;;;;;5078773;28;20048;-89
2022/12/01 08:04:36;;;;;;;71.38;38.13;;;;;;;;;;5077778;28;20067;-90
2022/12/01 08:07:04;;;;;;;92.13;46.38;;;;;;;;;;5077398;28;20051;-89
2022/12/01 08:09:31;;;;;;;77.57;38.05;;;;;;;;;;5077335;28;20158;-89
2022/12/01 08:11:58;;;;;;;91.53;43.45;;;;;;;;;;5077631;28;20050;-89
2022/12/01 08:14:25;;;;;;;117.75;57.33;;;;;;;;;;5077927;28;20055;-89
2022/12/01 08:16:53;;;;;;;90.40;45.15;;;;;;;;;;5078787;28;20050;-90
2022/12/01 08:19:20;;;;;;;72.10;35.70;;;;;;;;;;5090298;28;20048;-90
2022/12/01 08:21:47;;;;;;;104.20;46.55;;;;;;;;;;5091237;28;20136;-89
2022/12/01 08:24:15;;;;;;;99.65;44.25;;;;;;;;;;5075518;28;20190;-90
2022/12/01 08:26:42;;;;;;;90.97;40.78;;;;;;;;;;5076304;28;20050;-89
2022/12/01 08:29:11;;;;;;;134.32;60.50;;;;;;;;;;5076044;28;20052;-90
2022/12/01 08:31:46;;;;;;;109.85;52.53;;;;;;;;;;5077439;28;20040;-89
2022/12/01 08:34:16;;;;;;;83.53;35.38;;;;;;;;;;5077971;28;20098;-89
2022/12/01 08:36:43;;;;;;;88.15;39.95;;;;;;;;;;5094145;28;20511;-89
2022/12/01 08:39:10;;;;;;;80.18;34.85;;;;;;;;;;5076030;28;20124;-89
2022/12/01 08:41:38;;;;;;;81.75;36.33;;;;;;;;;;5076029;28;20139;-91
2022/12/01 08:44:09;;;;;;;83.47;35.53;;;;;;;;;;5076636;28;20040;-89
2022/12/01 08:46:37;;;;;;;81.72;36.58;;;;;;;;;;5075883;28;20339;-89
2022/12/01 08:49:05;;;;;;;88.20;35.85;;;;;;;;;;5076077;28;20048;-89
2022/12/01 08:51:32;;;;;;;84.93;36.42;;;;;;;;;;5076219;28;20595;-89
2022/12/01 08:54:00;;;;;;;91.18;37.83;;;;;;;;;;5076034;28;20480;-89
2022/12/01 08:56:35;;;;;;;89.95;39.13;;;;;;;;;;5075937;28;20048;-90
2022/12/01 08:59:03;;;;;;;118.05;48.67;;;;;;;;;;5076036;28;20113;-89
2022/12/01 09:01:31;;;;;;;92.75;40.05;;;;;;;;;;5076160;28;20134;-89
2022/12/01 09:04:07;;;;;;;100.25;39.28;;;;;;;;;;5075985;28;20063;-89
2022/12/01 09:06:39;;;;;;;97.97;39.30;;;;;;;;;;5075995;28;20048;-89
2022/12/01 09:09:07;;;;;;;96.25;38.97;;;;;;;;;;5076132;28;20052;-90
2022/12/01 09:11:35;;;;;;;105.15;39.40;;;;;;;;;;5080228;28;20492;-90
2022/12/01 09:14:02;;;;;;;92.43;39.97;;;;;;;;;;5092723;28;20071;-90
2022/12/01 09:16:30;;;;;;;94.78;40.25;;;;;;;;;;5076670;28;20557;-89
2022/12/01 09:18:57;;;;;;;97.20;39.72;;;;;;;;;;5075798;28;20044;-89
2022/12/01 09:21:27;;;;;;;87.82;38.85;;;;;;;;;;5075485;28;20052;-88
2022/12/01 09:23:54;;;;;;;86.00;38.40;;;;;;;;;;5075808;28;20408;-90
2022/12/01 09:26:22;;;;;;;89.03;37.83;;;;;;;;;;5075118;28;20056;-89
2022/12/01 09:28:59;;;;;;;99.70;44.50;;;;;;;;;;5075603;28;20153;-89
2022/12/01 09:31:27;;;;;;;84.70;37.72;;;;;;;;;;5075429;28;20048;-88
2022/12/01 09:33:55;;;;;;;88.28;37.47;;;;;;;;;;5075346;28;20052;-89
2022/12/01 09:36:22;;;;;;;86.03;36.03;;;;;;;;;;5078036;28;20058;-89
2022/12/01 09:38:50;;;;;;;84.22;36.90;;;;;;;;;;5079330;28;20050;-87
2022/12/01 09:41:21;;;;;;;78.20;34.92;;;;;;;;;;5079260;28;20488;-88
2022/12/01 09:43:50;;;;;;;88.72;36.63;;;;;;;;;;5079089;28;20043;-89
2022/12/01 09:46:25;;;;;;;83.25;36.65;;;;;;;;;;5096580;28;20271;-89
2022/12/01 09:48:54;;;;;;;79.50;34.10;;;;;;;;;;5078927;28;20381;-89
2022/12/01 09:51:27;;;;;;;166.48;66.70;;;;;;;;;;5096472;28;20048;-89
2022/12/01 09:53:59;;;;;;;75.93;33.25;;;;;;;;;;5079094;28;20051;-88
2022/12/01 09:56:31;;;;;;;77.63;32.60;;;;;;;;;;5078929;28;20055;-88
2022/12/01 09:59:07;;;;;;;68.32;32.75;;;;;;;;;;5078913;28;20051;-89
2022/12/01 10:01:36;;;;;;;92.25;40.67;;;;;;;;;;5078729;28;20403;-88
2022/12/01 10:04:09;;;;;;;80.93;31.70;;;;;;;;;;5079072;28;20052;-89
2022/12/01 10:06:46;;;;;;;68.40;33.78;;;;;;;;;;5078674;28;20492;-88
2022/12/01 10:09:20;;;;;;;90.57;49.13;;;;;;;;;;5078453;28;20051;-88
2022/12/01 10:11:49;;;;;;;79.15;37.60;;;;;;;;;;5078552;28;20056;-88
2022/12/01 10:14:18;;;;;;;112.80;54.70;;;;;;;;;;5078525;28;20469;-89
2022/12/01 10:17:05;;;;;;;90.82;43.30;;;;;;;;;;5078897;28;20044;-88
2022/12/01 10:19:41;;;;;;;104.90;34.22;;;;;;;;;;5096516;28;20048;-90
2022/12/01 10:22:08;;;;;;;89.22;33.75;;;;;;;;;;5078218;28;20492;-89
2022/12/01 10:24:56;;;;;;;73.57;32.80;;;;;;;;;;5078097;28;20066;-89
2022/12/01 10:27:29;;;;;;;78.38;33.50;;;;;;;;;;5091385;28;20075;-89
2022/12/01 10:30:14;;;;;;;74.68;31.98;;;;;;;;;;5083454;28;20066;-89
2022/12/01 10:32:51;;;;;;;95.93;48.70;;;;;;;;;;5078412;28;20080;-89
2022/12/01 10:35:20;;;;;;;76.95;32.90;;;;;;;;;;5078358;28;20052;-90
2022/12/01 10:37:49;;;;;;;86.00;34.38;;;;;;;;;;5096022;28;20056;-89
2022/12/01 10:40:17;;;;;;;100.82;44.22;;;;;;;;;;5078022;28;20389;-89
2022/12/01 10:42:46;;;;;;;78.85;33.35;;;;;;;;;;5078262;28;20488;-90
2022/12/01 10:45:34;;;;;;;75.30;31.77;;;;;;;;;;5078164;28;20044;-89
2022/12/01 10:48:14;;;;;;;77.22;33.65;;;;;;;;;;5077162;28;20054;-89
2022/12/01 10:50:47;;;;;;;79.65;33.13;;;;;;;;;;5078019;28;20072;-90
2022/12/01 10:53:24;;;;;;;79.15;32.88;;;;;;;;;;5078143;28;20047;-89
2022/12/01 10:55:57;;;;;;;83.00;35.55;;;;;;;;;;5078215;28;20043;-89
2022/12/01 10:58:25;;;;;;;87.65;34.03;;;;;;;;;;5078167;28;20050;-89
2022/12/01 11:00:57;;;;;;;84.68;34.75;;;;;;;;;;5078592;28;20056;-89
2022/12/01 11:03:36;;;;;;;82.05;33.90;;;;;;;;;;5080106;28;20047;-89
2022/12/01 11:06:05;;;;;;;77.95;32.15;;;;;;;;;;5078808;28;20184;-89
2022/12/01 11:08:38;;;;;;;78.50;32.08;;;;;;;;;;5096033;28;20048;-89
2022/12/01 11:11:06;;;;;;;;;;;;;;;;;;5078912;28;20480;-89
2022/12/01 11:13:35;;;;;;;84.20;31.65;;;;;;;;;;5078482;28;19920;-89
2022/12/01 11:16:04;;;;;;;70.80;31.15;;;;;;;;;;5078539;28;20143;-89
2022/12/01 11:18:35;;;;;;;88.78;33.55;;;;;;;;;;5078747;28;20055;-89
2022/12/01 11:21:12;;;;;;;73.22;31.98;;;;;;;;;;5079914;28;20471;-88
2022/12/01 11:23:46;;;;;;;80.07;32.63;;;;;;;;;;5094281;28;20067;-89
2022/12/01 11:26:19;;;;;;;79.00;32.88;;;;;;;;;;5095964;28;20079;-88
2022/12/01 11:29:05;;;;;;;75.05;32.58;;;;;;;;;;5078839;28;20549;-89
2022/12/01 11:31:41;;;;;;;72.35;30.83;;;;;;;;;;5076498;28;20048;-89
2022/12/01 11:34:27;;;;;;;70.40;30.40;;;;;;;;;;5077128;28;20431;-89
2022/12/01 11:36:56;;;;;;;75.25;31.70;;;;;;;;;;5076638;28;20060;-89
2022/12/01 11:39:30;;;;;;;74.20;30.88;;;;;;;;;;5094780;28;20058;-89
2022/12/01 11:41:59;;;;;;;69.80;31.10;;;;;;;;;;5094306;28;20100;-89
2022/12/01 11:44:28;;;;;;;67.00;30.50;;;;;;;;;;5088299;28;20069;-89
2022/12/01 11:47:17;;;;;;;73.95;31.88;;;;;;;;;;5099134;28;20102;-88
2022/12/01 11:50:00;;;;;;;73.82;30.42;;;;;;;;;;5083954;28;20059;-89
2022/12/01 11:52:33;;;;;;;73.57;30.60;;;;;;;;;;5090078;28;20074;-89
2022/12/01 11:55:02;;;;;;;81.93;32.65;;;;;;;;;;5085965;28;20426;-89
2022/12/01 11:57:37;;;;;;;76.68;32.08;;;;;;;;;;5091943;28;20043;-89
2022/12/01 12:00:17;;;;;;;85.13;33.60;;;;;;;;;;5094844;28;20126;-89
2022/12/01 12:03:08;;;;;;;78.07;32.40;;;;;;;;;;5087424;28;20056;-90
2022/12/01 12:05:46;;;;;;;79.40;32.30;;;;;;;;;;5087112;28;20108;-89
2022/12/01 12:08:23;;;;;;;81.10;33.03;;;;;;;;;;5087202;28;20563;-89
2022/12/01 12:10:59;;;;;;;72.97;31.80;;;;;;;;;;5087030;28;20050;-89
2022/12/01 12:13:45;;;;;;;75.90;33.15;;;;;;;;;;5091003;28;20047;-88
2022/12/01 12:16:21;;;;;;;78.90;34.65;;;;;;;;;;5084027;28;20091;-89
2022/12/01 12:18:59;;;;;;;73.10;31.38;;;;;;;;;;5086439;28;20124;-90
2022/12/01 12:21:34;;;;;;;80.60;31.75;;;;;;;;;;5087200;28;20126;-90
2022/12/01 12:24:23;;;;;;;94.72;33.50;;;;;;;;;;5085535;28;20388;-89
2022/12/01 12:26:56;;;;;;;87.43;31.38;;;;;;;;;;5086280;28;20384;-89
2022/12/01 12:29:23;;;;;;;;;;;;;;;;;;5086799;28;20077;-89
2022/12/01 12:31:51;;;;;;;68.15;29.55;;;;;;;;;;5085852;28;19926;-89
2022/12/01 12:34:29;;;;;;;68.72;28.50;;;;;;;;;;5087492;28;20039;-89
2022/12/01 12:37:09;;;;;;;62.97;27.92;;;;;;;;;;5119199;28;20050;-89
2022/12/01 12:39:56;;;;;;;68.28;33.15;;;;;;;;;;5082475;28;20070;-89
2022/12/01 12:42:42;;;;;;;61.33;28.00;;;;;;;;;;5086042;28;20040;-89
2022/12/01 12:45:22;;;;;;;63.40;28.42;;;;;;;;;;5081424;28;20145;-89
2022/12/01 12:48:08;;;;;;;58.17;26.92;;;;;;;;;;5075986;28;20064;-89
2022/12/01 12:50:43;;;;;;;77.80;35.85;;;;;;;;;;5075639;28;20054;-89
2022/12/01 12:53:15;;;;;;;113.22;54.53;;;;;;;;;;5076269;28;20163;-89
2022/12/01 12:55:45;;;;;;;74.25;31.40;;;;;;;;;;5090361;28;20056;-89
2022/12/01 12:58:12;;;;;;;131.07;59.45;;;;;;;;;;5081097;28;20531;-88
2022/12/01 13:00:43;;;;;;;162.60;64.22;;;;;;;;;;5075955;28;20062;-89
2022/12/01 13:03:13;;;;;;;98.25;40.58;;;;;;;;;;5075900;28;20506;-89
2022/12/01 13:05:52;;;;;;;129.43;55.10;;;;;;;;;;5075946;28;20058;-89
2022/12/01 13:08:33;;;;;;;82.47;36.63;;;;;;;;;;5075584;28;20527;-90
2022/12/01 13:11:00;;;;;;;81.15;37.63;;;;;;;;;;5076834;28;20048;-89
2022/12/01 13:13:31;;;;;;;62.70;31.48;;;;;;;;;;5079627;28;20051;-89
2022/12/01 13:16:00;;;;;;;86.70;31.05;;;;;;;;;;5079680;28;20104;-89
2022/12/01 13:18:46;;;;;;;74.20;34.88;;;;;;;;;;5079441;28;20508;-89
2022/12/01 13:21:15;;;;;;;69.88;29.05;;;;;;;;;;5079235;28;20048;-89
2022/12/01 13:23:44;;;;;;;69.93;29.75;;;;;;;;;;5079689;28;20052;-89
2022/12/01 13:26:12;;;;;;;67.00;28.88;;;;;;;;;;5079449;28;20066;-89
2022/12/01 13:28:48;;;;;;;71.53;28.88;;;;;;;;;;5079560;28;20052;-89
2022/12/01 13:31:17;;;;;;;70.43;31.60;;;;;;;;;;5079193;28;20047;-89
2022/12/01 13:33:58;;;;;;;75.20;31.40;;;;;;;;;;5079311;28;20546;-89
2022/12/01 13:36:26;;;;;;;79.55;31.10;;;;;;;;;;5078852;28;20081;-89
2022/12/01 13:39:23;;;;;;;73.22;29.33;;;;;;;;;;5081506;28;20101;-88
2022/12/01 13:41:58;;;;;;;72.85;30.52;;;;;;;;;;5078860;28;20502;-89
2022/12/01 13:44:29;;;;;;;75.90;32.58;;;;;;;;;;5078965;28;20082;-90
2022/12/01 13:47:03;;;;;;;71.75;30.08;;;;;;;;;;5078633;28;20044;-89
2022/12/01 13:49:35;;;;;;;75.30;29.88;;;;;;;;;;5079116;28;20127;-90
2022/12/01 13:52:15;;;;;;;73.30;29.77;;;;;;;;;;5078876;28;20158;-90
2022/12/01 13:55:11;;;;;;;81.93;31.02;;;;;;;;;;5078948;28;20384;-91
2022/12/01 13:57:42;;;;;;;92.63;31.08;;;;;;;;;;5050722;28;20040;-90
2022/12/01 14:00:16;;;;;;;76.40;29.50;;;;;;;;;;5089271;28;20079;-90
2022/12/01 14:02:43;;;;;;;80.50;30.70;;;;;;;;;;5096192;28;20412;-89
2022/12/01 14:05:30;;;;;;;76.22;29.58;;;;;;;;;;5095269;28;20488;-90
2022/12/01 14:07:57;;;;;;;79.07;31.30;;;;;;;;;;5095885;28;20198;-90
2022/12/01 14:10:27;;;;;;;75.15;30.75;;;;;;;;;;5115995;28;20048;-90
2022/12/01 14:12:57;;;;;;;81.57;27.73;;;;;;;;;;5103629;28;20052;-90
2022/12/01 14:15:32;;;;;;;82.25;32.85;;;;;;;;;;5097557;28;20472;-90
2022/12/01 14:18:02;;;;;;;107.20;39.47;;;;;;;;;;5096164;28;20060;-90
2022/12/01 14:20:32;;;;;;;72.30;29.25;;;;;;;;;;5096972;28;20048;-91
2022/12/01 14:23:02;;;;;;;71.78;28.63;;;;;;;;;;5094645;28;20595;-91
2022/12/01 14:25:30;;;;;;;71.63;29.02;;;;;;;;;;5103446;28;20064;-90
2022/12/01 14:28:02;;;;;;;81.05;29.73;;;;;;;;;;5098920;28;20127;-90
2022/12/01 14:30:38;;;;;;;74.07;29.55;;;;;;;;;;5085968;28;20235;-90
2022/12/01 14:33:24;;;;;;;77.85;30.50;;;;;;;;;;5079923;28;20056;-90
2022/12/01 14:35:52;;;;;;;80.32;30.08;;;;;;;;;;5082794;28;20399;-91
2022/12/01 14:38:19;;;;;;;68.40;29.13;;;;;;;;;;5088355;28;20062;-90
2022/12/01 14:40:47;;;;;;;71.18;29.33;;;;;;;;;;5080111;28;20134;-89
2022/12/01 14:46:06;;;;;;;72.72;28.98;;;;;;;;;;5097103;28;20052;-91
2022/12/01 14:48:44;;;;;;;67.43;28.15;;;;;;;;;;5080314;28;20058;-90
2022/12/01 14:51:18;;;;;;;71.38;28.75;;;;;;;;;;5091706;28;20134;-90
2022/12/01 14:53:47;;;;;;;71.47;28.50;;;;;;;;;;5087452;28;20405;-89